createdAt,value
2023-10-22T00:00:59.797Z,10.60
2023-10-22T00:06:23.996Z,11.50
2023-10-22T00:11:27.422Z,11.10
2023-10-22T00:16:30.753Z,12.30
2023-10-22T00:21:35.915Z,11.00
2023-10-22T00:26:41.468Z,10.10
2023-10-22T00:31:44.873Z,11.40
2023-10-22T00:36:48.200Z,11.20
2023-10-22T00:41:52.033Z,9.10
2023-10-22T00:46:55.910Z,9.30
2023-10-22T00:51:59.596Z,10.20
2023-10-22T00:57:04.633Z,9.60
2023-10-22T01:02:08.722Z,9.10
2023-10-22T01:07:12.066Z,9.20
2023-10-22T01:12:15.467Z,10.10
2023-10-22T01:17:20.869Z,10.90
2023-10-22T01:22:24.743Z,8.90
2023-10-22T01:27:28.025Z,10.90
2023-10-22T01:32:32.215Z,9.60
2023-10-22T01:37:39.218Z,9.10
2023-10-22T01:42:42.534Z,10.00
2023-10-22T01:47:45.889Z,10.00
2023-10-22T01:52:49.415Z,10.10
2023-10-22T01:57:54.908Z,7.60
2023-10-22T02:02:58.267Z,8.30
2023-10-22T02:08:03.566Z,8.30
2023-10-22T02:13:06.976Z,8.00
2023-10-22T02:18:10.658Z,8.40
2023-10-22T02:23:14.282Z,7.00
2023-10-22T02:28:20.764Z,6.90
2023-10-22T02:33:24.299Z,6.80
2023-10-22T02:38:28.029Z,7.70
2023-10-22T02:43:32.351Z,8.20
2023-10-22T02:48:35.761Z,8.00
2023-10-22T02:53:40.212Z,7.30
2023-10-22T02:58:43.885Z,8.50
2023-10-22T03:03:47.283Z,8.60
2023-10-22T03:08:51.028Z,9.20
2023-10-22T03:13:54.396Z,9.50
2023-10-22T03:18:57.825Z,9.00
2023-10-22T03:24:03.035Z,8.70
2023-10-22T03:29:06.369Z,8.80
2023-10-22T03:34:09.854Z,8.90
2023-10-22T03:39:15.192Z,9.40
2023-10-22T03:44:18.582Z,8.90
2023-10-22T03:49:21.963Z,9.60
2023-10-22T03:54:25.330Z,9.10
2023-10-22T03:59:28.627Z,8.70
2023-10-22T04:04:32.303Z,9.10
2023-10-22T04:09:35.786Z,8.80
2023-10-22T04:14:39.449Z,10.00
2023-10-22T04:19:43.014Z,9.30
2023-10-22T04:24:47.153Z,9.30
2023-10-22T04:29:51.292Z,5.50
2023-10-22T04:34:54.617Z,9.20
2023-10-22T04:39:59.882Z,10.00
2023-10-22T04:45:03.893Z,8.40
2023-10-22T04:50:07.525Z,9.00
2023-10-22T04:55:17.085Z,10.60
2023-10-22T05:00:20.642Z,10.10
2023-10-22T05:05:25.357Z,7.40
2023-10-22T05:10:28.757Z,9.90
2023-10-22T05:15:32.102Z,8.70
2023-10-22T05:20:35.982Z,8.40
2023-10-22T05:25:39.389Z,7.70
2023-10-22T05:30:42.780Z,8.50
2023-10-22T05:35:46.215Z,9.50
2023-10-22T05:40:49.664Z,8.50
2023-10-22T05:45:59.232Z,9.00
2023-10-22T05:51:02.788Z,8.60
2023-10-22T05:56:06.212Z,9.60
2023-10-22T06:01:10.749Z,8.40
2023-10-22T06:06:19.226Z,8.60
2023-10-22T06:11:22.552Z,8.40
2023-10-22T06:16:26.013Z,8.60
2023-10-22T06:21:30.174Z,8.70
2023-10-22T06:26:33.525Z,8.40
2023-10-22T06:31:36.894Z,8.30
2023-10-22T06:36:41.060Z,8.30
2023-10-22T06:41:45.801Z,8.20
2023-10-22T06:46:49.308Z,9.50
2023-10-22T06:51:54.765Z,9.70
2023-10-22T06:56:58.421Z,9.30
2023-10-22T07:02:02.238Z,10.40
2023-10-22T07:07:05.646Z,10.40
2023-10-22T07:12:09.473Z,10.80
2023-10-22T07:17:13.235Z,10.50
2023-10-22T07:22:16.622Z,13.70
2023-10-22T07:27:20.146Z,9.70
2023-10-22T07:32:23.530Z,11.70
2023-10-22T07:37:26.997Z,12.50
2023-10-22T07:42:32.088Z,11.70
2023-10-22T07:47:36.777Z,12.40
2023-10-22T07:52:40.329Z,11.20
2023-10-22T07:57:43.626Z,22.80
2023-10-22T08:02:47.075Z,23.10
2023-10-22T08:07:50.536Z,15.10
2023-10-22T08:12:54.030Z,15.20
2023-10-22T08:17:57.595Z,13.40
2023-10-22T08:23:02.022Z,14.20
2023-10-22T08:28:07.781Z,12.10
2023-10-22T08:33:11.332Z,13.50
2023-10-22T08:38:18.858Z,13.50
2023-10-22T08:43:22.224Z,11.60
2023-10-22T08:48:30.985Z,11.90
2023-10-22T08:53:34.503Z,12.90
2023-10-22T08:58:37.983Z,12.60
2023-10-22T09:03:43.523Z,12.70
2023-10-22T09:08:47.711Z,12.00
2023-10-22T09:13:51.377Z,10.70
2023-10-22T09:18:54.974Z,11.40
2023-10-22T09:24:06.340Z,10.90
2023-10-22T09:29:10.146Z,11.00
2023-10-22T09:34:36.591Z,11.70
2023-10-22T09:39:44.528Z,11.60
2023-10-22T09:44:48.416Z,12.00
2023-10-22T09:49:57.592Z,13.20
2023-10-22T09:55:06.190Z,13.60
2023-10-22T10:00:16.199Z,14.10
2023-10-22T10:05:22.187Z,12.40
2023-10-22T10:10:25.829Z,11.10
2023-10-22T10:15:40.046Z,11.70
2023-10-22T10:20:44.136Z,11.60
2023-10-22T10:25:47.559Z,9.90
2023-10-22T10:30:52.921Z,8.50
2023-10-22T10:35:57.798Z,8.10
2023-10-22T10:41:01.201Z,8.10
2023-10-22T10:46:28.354Z,8.00
2023-10-22T10:51:31.987Z,7.40
2023-10-22T10:56:51.903Z,7.10
2023-10-22T11:02:13.762Z,10.30
2023-10-22T11:07:26.737Z,11.70
2023-10-22T11:12:31.253Z,12.00
2023-10-22T11:17:34.719Z,12.00
2023-10-22T11:22:38.588Z,10.50
2023-10-22T11:27:43.164Z,11.10
2023-10-22T11:32:49.470Z,10.00
2023-10-22T11:37:54.746Z,8.60
2023-10-22T11:43:04.642Z,8.40
2023-10-22T11:48:16.575Z,9.40
2023-10-22T11:53:20.051Z,10.30
2023-10-22T11:58:26.679Z,8.30
2023-10-22T12:03:30.268Z,8.10
2023-10-22T12:08:33.778Z,7.50
2023-10-22T12:13:37.223Z,7.40
2023-10-22T12:18:40.733Z,8.40
2023-10-22T12:23:49.624Z,8.80
2023-10-22T12:28:56.196Z,9.30
2023-10-22T12:33:59.712Z,10.90
2023-10-22T12:39:04.786Z,12.50
2023-10-22T12:44:08.212Z,14.20
2023-10-22T12:49:12.062Z,12.40
2023-10-22T12:54:15.618Z,11.10
2023-10-22T12:59:19.188Z,9.10
2023-10-22T13:04:25.709Z,9.80
2023-10-22T13:09:29.360Z,11.50
2023-10-22T13:14:33.022Z,14.40
2023-10-22T13:19:39.885Z,15.60
2023-10-22T13:24:43.689Z,15.90
2023-10-22T13:29:47.193Z,17.00
2023-10-22T13:34:52.938Z,16.70
2023-10-22T13:39:56.526Z,15.60
2023-10-22T13:45:01.477Z,11.70
2023-10-22T13:50:07.565Z,10.40
2023-10-22T13:55:13.441Z,10.50
2023-10-22T14:00:17.305Z,10.30
2023-10-22T14:05:21.028Z,10.40
2023-10-22T14:10:24.488Z,9.70
2023-10-22T14:15:29.596Z,9.10
2023-10-22T14:20:33.483Z,9.40
2023-10-22T14:25:38.170Z,10.20
2023-10-22T14:30:45.721Z,8.30
2023-10-22T14:35:53.749Z,10.70
2023-10-22T14:40:57.276Z,9.30
2023-10-22T14:46:01.812Z,9.70
2023-10-22T14:51:05.353Z,12.40
2023-10-22T14:56:09.098Z,18.00
2023-10-22T15:01:14.032Z,10.50
2023-10-22T15:06:17.688Z,9.80
2023-10-22T15:11:23.213Z,13.30
2023-10-22T15:16:27.779Z,12.10
2023-10-22T15:21:31.577Z,10.40
2023-10-22T15:26:36.351Z,10.80
2023-10-22T15:31:40.342Z,13.50
2023-10-22T15:36:46.250Z,12.00
2023-10-22T15:41:50.098Z,13.70
2023-10-22T15:46:55.225Z,13.70
2023-10-22T15:51:59.092Z,13.30
2023-10-22T15:57:03.169Z,16.00
2023-10-22T16:02:07.132Z,17.00
2023-10-22T16:07:11.423Z,15.40
2023-10-22T16:12:19.414Z,16.30
2023-10-22T16:17:25.819Z,17.80
2023-10-22T16:22:29.658Z,16.40
2023-10-22T16:27:33.640Z,17.70
2023-10-22T16:32:37.339Z,16.20
2023-10-22T16:37:41.021Z,17.90
2023-10-22T16:42:47.231Z,20.10
2023-10-22T16:47:53.010Z,21.10
2023-10-22T16:52:57.140Z,20.70
2023-10-22T16:58:00.983Z,34.20
2023-10-22T17:03:05.138Z,24.30
2023-10-22T17:08:09.441Z,22.00
2023-10-22T17:13:14.004Z,22.40
2023-10-22T17:18:19.037Z,19.30
2023-10-22T17:23:22.952Z,20.90
2023-10-22T17:28:27.689Z,21.70
2023-10-22T17:33:37.067Z,25.00
2023-10-22T17:38:49.517Z,22.60
2023-10-22T17:43:53.311Z,23.70
2023-10-22T17:48:57.942Z,24.00
2023-10-22T17:54:01.755Z,24.60
2023-10-22T17:59:05.428Z,24.90
2023-10-22T18:04:09.495Z,25.30
2023-10-22T18:09:15.131Z,26.40
2023-10-22T18:14:19.279Z,23.70
2023-10-22T18:19:35.140Z,23.90
2023-10-22T18:24:44.296Z,23.40
2023-10-22T18:29:48.177Z,22.60
2023-10-22T18:34:51.826Z,23.70
2023-10-22T18:39:55.503Z,23.40
2023-10-22T18:44:59.201Z,24.20
2023-10-22T18:50:02.954Z,20.50
2023-10-22T18:55:07.883Z,17.90
2023-10-22T19:00:12.456Z,15.00
2023-10-22T19:05:16.133Z,15.80
2023-10-22T19:10:19.980Z,14.30
2023-10-22T19:15:23.886Z,14.90
2023-10-22T19:20:29.807Z,12.90
2023-10-22T19:25:36.768Z,11.20
2023-10-22T19:30:40.502Z,11.00
2023-10-22T19:35:44.317Z,12.30
2023-10-22T19:40:47.977Z,10.90
2023-10-22T19:46:19.855Z,10.30
2023-10-22T19:51:23.514Z,12.10
2023-10-22T19:56:27.150Z,11.70
2023-10-22T20:01:30.606Z,10.20
2023-10-22T20:06:35.279Z,11.30
2023-10-22T20:11:38.918Z,12.90
2023-10-22T20:16:43.384Z,10.20
2023-10-22T20:21:46.807Z,10.60
2023-10-22T20:26:50.705Z,9.30
2023-10-22T20:31:54.631Z,11.40
2023-10-22T20:37:04.169Z,12.60
2023-10-22T20:42:07.690Z,11.00
2023-10-22T20:47:14.297Z,10.20
2023-10-22T20:52:17.728Z,11.40
2023-10-22T20:57:21.477Z,11.40
2023-10-22T21:02:29.089Z,12.90
2023-10-22T21:07:35.673Z,12.60
2023-10-22T21:12:43.289Z,13.20
2023-10-22T21:17:46.839Z,14.10
2023-10-22T21:22:54.550Z,14.00
2023-10-22T21:27:58.011Z,14.60
2023-10-22T21:33:04.967Z,15.10
2023-10-22T21:38:08.395Z,15.90
2023-10-22T21:43:11.749Z,16.10
2023-10-22T21:48:15.704Z,15.10
2023-10-22T21:53:28.260Z,16.80
2023-10-22T21:58:35.420Z,17.50
2023-10-22T22:03:38.980Z,17.40
2023-10-22T22:08:43.108Z,16.30
2023-10-22T22:13:47.466Z,15.90
2023-10-22T22:18:51.056Z,15.90
2023-10-22T22:23:54.854Z,17.30
2023-10-22T22:28:58.324Z,17.10
2023-10-22T22:34:03.822Z,16.20
2023-10-22T22:39:07.594Z,15.60
2023-10-22T22:44:14.012Z,17.00
2023-10-22T22:49:17.483Z,16.50
2023-10-22T22:54:22.891Z,15.90
2023-10-22T22:59:28.125Z,16.50
2023-10-22T23:04:32.584Z,16.20
2023-10-22T23:09:36.001Z,17.30
2023-10-22T23:14:39.472Z,17.40
2023-10-22T23:19:43.024Z,16.60
2023-10-22T23:24:46.383Z,17.10
2023-10-22T23:29:49.733Z,17.80
2023-10-22T23:34:53.055Z,17.40
2023-10-22T23:39:56.563Z,17.90
2023-10-22T23:44:59.945Z,18.00
2023-10-22T23:50:03.494Z,17.20
2023-10-22T23:55:07.381Z,17.30
